Estación Meteorológica Peña el Pijo (Robertgarden) [ 03/26/19 14:55:10 CET ]

Fecha Hora Presion(HPa) Temp (°C) Humedad % Rocio (°C) Viento ( m/s) Direccion Lluvia 1Hora(mm) Lluvia 24H(mm) LLuvia Total(mm)
2019-Jan-09 01:01:48 1012.000 0.9 55 -7.2         161.09
2019-Jan-09 02:03:10 1011.900 0.2 56 -7.6         161.09
2019-Jan-09 03:01:48 1011.100 0.0 55 -8.0         161.09
2019-Jan-09 04:01:49 1010.700 0.5 58 -6.8         161.09
2019-Jan-09 05:01:34 1010.500 0.7 63 -5.6         161.09
2019-Jan-09 06:01:51 1009.600 1.9 65 -4.0         161.09
2019-Jan-09 07:01:46 1008.900 1.4 66 -4.3         161.09
2019-Jan-09 08:01:50 1009.400 0.7 65 -5.2         161.09
2019-Jan-09 09:01:41 1009.200 -0.1 67 -5.5         161.09
2019-Jan-09 10:01:39 1009.800 4.5 59 -2.8         161.09
2019-Jan-09 11:01:55 1009.600 10.4 43 -1.7         161.09
2019-Jan-09 12:01:50 1008.800 14.9 26 -4.6         161.09
2019-Jan-09 13:01:40 1007.200 15.3 20 -7.5 0.5 NNE     161.09
2019-Jan-09 14:01:44 1006.200 17.7 21 -5.0         161.09
2019-Jan-09 15:01:36 1005.400 17.5 23 -4.1 2.3 N     161.09
2019-Jan-09 16:01:43 1005.100 16.3 20 -6.7         161.09
2019-Jan-09 17:01:36 1005.200 12.8 19 -10.4         161.09
2019-Jan-09 18:01:37 1005.100 10.3 27 -8.1         161.09
2019-Jan-09 19:01:44 1005.500 7.8 33 -7.6         161.09
2019-Jan-09 20:02:01 1005.300 5.9 40 -6.7         161.09
2019-Jan-09 21:01:57 1005.300 5.1 45 -6.0         161.09
2019-Jan-09 22:01:39 1005.400 4.9 48 -5.3         161.09
2019-Jan-09 23:01:45 1005.600 3.9 51 -5.3         161.09

Temperatura Máxima:17°    Temperatura Mínima:
Presión Máxima:1012.000 Hpa    Presión Mínima:1005.100 Hpa


Volver